createdAt,value
2023-05-30T00:00:32.999Z,63.90
2023-05-30T00:03:01.593Z,63.90
2023-05-30T00:05:29.375Z,64.00
2023-05-30T00:07:57.398Z,64.00
2023-05-30T00:10:25.138Z,64.10
2023-05-30T00:12:57.078Z,64.10
2023-05-30T00:15:25.606Z,64.10
2023-05-30T00:17:54.029Z,64.20
2023-05-30T00:20:23.414Z,64.20
2023-05-30T00:22:52.307Z,64.10
2023-05-30T00:25:21.743Z,64.40
2023-05-30T00:27:49.546Z,64.40
2023-05-30T00:30:18.837Z,64.50
2023-05-30T00:32:46.646Z,64.60
2023-05-30T00:35:14.415Z,64.60
2023-05-30T00:37:42.158Z,64.60
2023-05-30T00:40:10.679Z,64.60
2023-05-30T00:42:38.437Z,64.60
2023-05-30T00:45:07.672Z,64.70
2023-05-30T00:47:36.885Z,64.60
2023-05-30T00:50:05.768Z,64.60
2023-05-30T00:52:33.496Z,64.70
2023-05-30T00:55:03.484Z,64.70
2023-05-30T00:57:34.665Z,64.70
2023-05-30T01:00:03.857Z,64.90
2023-05-30T01:02:35.067Z,64.80
2023-05-30T01:05:04.461Z,64.80
2023-05-30T01:07:32.981Z,64.80
2023-05-30T01:10:01.032Z,64.90
2023-05-30T01:12:34.536Z,64.70
2023-05-30T01:15:06.513Z,64.70
2023-05-30T01:17:38.246Z,64.90
2023-05-30T01:20:09.780Z,65.00
2023-05-30T01:22:56.846Z,64.90
2023-05-30T01:25:32.429Z,64.80
2023-05-30T01:28:06.611Z,64.90
2023-05-30T01:30:35.170Z,65.00
2023-05-30T01:33:02.966Z,65.00
2023-05-30T01:35:30.830Z,65.00
2023-05-30T01:38:00.373Z,65.10
2023-05-30T01:40:29.064Z,65.00
2023-05-30T01:42:59.904Z,65.10
2023-05-30T01:45:39.626Z,65.00
2023-05-30T01:48:11.557Z,65.00
2023-05-30T01:50:42.270Z,65.10
2023-05-30T01:53:11.914Z,65.10
2023-05-30T01:55:39.830Z,65.10
2023-05-30T01:58:07.573Z,65.40
2023-05-30T02:00:36.676Z,65.40
2023-05-30T02:03:04.633Z,65.30
2023-05-30T02:05:32.948Z,65.30
2023-05-30T02:08:02.745Z,65.40
2023-05-30T02:10:30.650Z,65.40
2023-05-30T02:12:58.403Z,65.40
2023-05-30T02:15:26.347Z,65.40
2023-05-30T02:17:55.873Z,65.40
2023-05-30T02:20:23.713Z,65.40
2023-05-30T02:22:51.536Z,65.50
2023-05-30T02:25:20.721Z,65.50
2023-05-30T02:27:50.444Z,65.50
2023-05-30T02:30:18.986Z,65.40
2023-05-30T02:32:46.706Z,65.50
2023-05-30T02:35:15.769Z,65.60
2023-05-30T02:37:44.322Z,65.50
2023-05-30T02:40:13.405Z,65.50
2023-05-30T02:42:41.153Z,66.20
2023-05-30T02:45:10.308Z,65.30
2023-05-30T02:47:41.754Z,65.20
2023-05-30T02:50:10.568Z,65.30
2023-05-30T02:52:39.762Z,65.20
2023-05-30T02:55:07.885Z,65.30
2023-05-30T02:57:38.416Z,65.30
2023-05-30T03:00:17.162Z,65.50
2023-05-30T03:02:55.414Z,65.50
2023-05-30T03:05:23.350Z,65.50
2023-05-30T03:07:53.711Z,65.60
2023-05-30T03:10:21.463Z,65.60
2023-05-30T03:12:51.680Z,65.60
2023-05-30T03:15:21.891Z,65.60
2023-05-30T03:17:49.695Z,65.60
2023-05-30T03:20:17.972Z,65.60
2023-05-30T03:22:46.018Z,65.60
2023-05-30T03:25:17.103Z,65.50
2023-05-30T03:27:51.150Z,65.60
2023-05-30T03:30:26.496Z,65.60
2023-05-30T03:32:58.073Z,65.60
2023-05-30T03:35:26.164Z,65.50
2023-05-30T03:37:54.141Z,65.60
2023-05-30T03:40:23.212Z,65.60
2023-05-30T03:42:52.117Z,65.40
2023-05-30T03:45:19.925Z,65.60
2023-05-30T03:47:47.707Z,65.70
2023-05-30T03:50:15.908Z,65.80
2023-05-30T03:52:43.627Z,65.70
2023-05-30T03:55:11.806Z,65.60
2023-05-30T03:57:40.841Z,65.70
2023-05-30T04:00:09.954Z,65.70
2023-05-30T04:02:40.211Z,65.70
2023-05-30T04:05:08.822Z,65.70
2023-05-30T04:07:36.656Z,65.60
2023-05-30T04:10:04.950Z,65.70
2023-05-30T04:12:32.809Z,65.60
2023-05-30T04:15:02.522Z,65.60
2023-05-30T04:17:31.975Z,65.40
2023-05-30T04:20:00.243Z,65.60
2023-05-30T04:22:28.081Z,65.50
2023-05-30T04:24:57.973Z,65.50
2023-05-30T04:27:25.741Z,65.40
2023-05-30T04:29:54.273Z,65.50
2023-05-30T04:32:24.856Z,65.40
2023-05-30T04:34:54.310Z,65.40
2023-05-30T04:37:22.231Z,65.30
2023-05-30T04:39:50.016Z,65.30
2023-05-30T04:42:18.902Z,65.30
2023-05-30T04:44:46.609Z,65.20
2023-05-30T04:47:15.310Z,65.10
2023-05-30T04:49:45.409Z,65.00
2023-05-30T04:52:13.665Z,65.00
2023-05-30T04:54:42.832Z,65.20
2023-05-30T04:57:10.582Z,65.00
2023-05-30T04:59:38.334Z,65.00
2023-05-30T05:02:07.926Z,64.90
2023-05-30T05:04:35.703Z,64.80
2023-05-30T05:07:04.833Z,64.80
2023-05-30T05:09:32.554Z,64.90
2023-05-30T05:12:01.686Z,65.10
2023-05-30T05:14:29.409Z,65.00
2023-05-30T05:16:58.184Z,65.20
2023-05-30T05:19:25.980Z,65.20
2023-05-30T05:21:53.693Z,65.30
2023-05-30T05:24:22.806Z,65.20
2023-05-30T05:26:50.855Z,65.10
2023-05-30T05:29:18.552Z,65.10
2023-05-30T05:31:46.276Z,65.10
2023-05-30T05:34:14.176Z,65.10
2023-05-30T05:36:43.461Z,65.20
2023-05-30T05:39:11.192Z,65.20
2023-05-30T05:41:40.469Z,65.30
2023-05-30T05:44:08.163Z,65.20
2023-05-30T05:46:35.985Z,65.20
2023-05-30T05:49:03.943Z,65.20
2023-05-30T05:51:32.861Z,65.20
2023-05-30T05:54:00.609Z,65.20
2023-05-30T05:56:28.410Z,65.30
2023-05-30T05:58:57.487Z,65.30
2023-05-30T06:01:25.196Z,65.20
2023-05-30T06:03:52.960Z,65.20
2023-05-30T06:06:20.856Z,65.40
2023-05-30T06:08:48.694Z,65.20
2023-05-30T06:11:16.424Z,65.20
2023-05-30T06:13:44.180Z,65.30
2023-05-30T06:16:13.288Z,65.30
2023-05-30T06:18:41.048Z,65.20
2023-05-30T06:21:11.413Z,65.30
2023-05-30T06:23:39.244Z,65.30
2023-05-30T06:26:06.989Z,65.30
2023-05-30T06:28:34.693Z,65.40
2023-05-30T06:31:02.402Z,65.30
2023-05-30T06:33:31.653Z,65.30
2023-05-30T06:35:59.403Z,65.40
2023-05-30T06:38:27.356Z,65.40
2023-05-30T06:40:55.523Z,65.50
2023-05-30T06:43:23.391Z,65.50
2023-05-30T06:45:51.803Z,65.50
2023-05-30T06:48:19.578Z,66.50
2023-05-30T06:50:48.666Z,65.60
2023-05-30T06:53:17.537Z,65.60
2023-05-30T06:55:45.497Z,65.60
2023-05-30T06:58:14.458Z,65.60
2023-05-30T07:00:42.523Z,65.60
2023-05-30T07:03:10.285Z,65.80
2023-05-30T07:05:38.457Z,65.60
2023-05-30T07:08:08.178Z,65.70
2023-05-30T07:10:36.593Z,65.40
2023-05-30T07:13:04.369Z,65.40
2023-05-30T07:15:32.556Z,65.40
2023-05-30T07:18:00.482Z,65.30
2023-05-30T07:20:28.358Z,65.20
2023-05-30T07:22:56.096Z,65.10
2023-05-30T07:25:25.133Z,65.10
2023-05-30T07:27:52.837Z,65.00
2023-05-30T07:30:21.555Z,65.00
2023-05-30T07:32:49.956Z,64.90
2023-05-30T07:35:17.851Z,64.80
2023-05-30T07:37:45.557Z,64.90
2023-05-30T07:40:18.162Z,64.80
2023-05-30T07:42:48.208Z,64.80
2023-05-30T07:45:16.205Z,64.80
2023-05-30T07:47:44.202Z,64.80
2023-05-30T07:50:12.028Z,64.80
2023-05-30T07:52:39.756Z,64.60
2023-05-30T07:55:08.184Z,64.00
2023-05-30T07:57:35.913Z,63.80
2023-05-30T08:00:09.213Z,63.00
2023-05-30T08:02:39.884Z,63.10
2023-05-30T08:05:07.780Z,63.50
2023-05-30T08:07:37.502Z,62.80
2023-05-30T08:10:05.659Z,63.00
2023-05-30T08:12:33.433Z,63.10
2023-05-30T08:15:01.244Z,62.70
2023-05-30T08:17:30.954Z,62.50
2023-05-30T08:19:59.057Z,62.30
2023-05-30T08:22:26.754Z,62.10
2023-05-30T08:24:56.115Z,61.80
2023-05-30T08:27:24.504Z,61.80
2023-05-30T08:29:52.289Z,61.60
2023-05-30T08:32:20.024Z,61.40
2023-05-30T08:34:49.172Z,61.10
2023-05-30T08:37:16.963Z,60.90
2023-05-30T08:39:44.689Z,60.80
2023-05-30T08:42:13.866Z,59.90
2023-05-30T08:44:41.817Z,60.20
2023-05-30T08:47:13.489Z,60.10
2023-05-30T08:49:43.204Z,60.00
2023-05-30T08:52:14.331Z,59.70
2023-05-30T08:54:43.631Z,59.50
2023-05-30T08:57:13.763Z,59.70
2023-05-30T08:59:41.456Z,59.50
2023-05-30T09:02:09.147Z,59.50
2023-05-30T09:04:37.056Z,59.50
2023-05-30T09:07:05.048Z,59.40
2023-05-30T09:09:34.806Z,59.40
2023-05-30T09:12:03.681Z,58.80
2023-05-30T09:14:31.576Z,59.10
2023-05-30T09:16:59.339Z,59.30
2023-05-30T09:19:27.074Z,59.00
2023-05-30T09:21:54.783Z,59.70
2023-05-30T09:24:22.823Z,59.80
2023-05-30T09:27:00.086Z,59.60
2023-05-30T09:29:28.077Z,59.40
2023-05-30T09:31:56.815Z,59.50
2023-05-30T09:34:24.547Z,63.90
2023-05-30T09:36:55.882Z,64.30
2023-05-30T09:39:26.893Z,63.50
2023-05-30T09:41:59.029Z,63.10
2023-05-30T09:44:26.830Z,63.20
2023-05-30T09:46:58.218Z,62.50
2023-05-30T09:49:27.700Z,61.90
2023-05-30T09:51:55.859Z,61.70
2023-05-30T09:54:23.700Z,61.50
2023-05-30T09:56:51.557Z,61.40
2023-05-30T09:59:20.757Z,61.90
2023-05-30T10:01:49.391Z,61.90
2023-05-30T10:04:18.234Z,62.30
2023-05-30T10:06:46.764Z,62.60
2023-05-30T10:09:14.718Z,62.80
2023-05-30T10:11:44.946Z,62.80
2023-05-30T10:14:13.034Z,62.90
2023-05-30T10:16:47.344Z,63.00
2023-05-30T10:19:17.696Z,63.00
2023-05-30T10:21:45.748Z,63.00
2023-05-30T10:24:15.779Z,63.00
2023-05-30T10:26:47.691Z,63.00
2023-05-30T10:29:15.945Z,63.00
2023-05-30T10:31:45.341Z,63.10
2023-05-30T10:34:14.209Z,63.10
2023-05-30T10:36:43.418Z,63.40
2023-05-30T10:39:22.117Z,63.10
2023-05-30T10:41:57.454Z,63.20
2023-05-30T10:44:32.996Z,63.40
2023-05-30T10:47:27.787Z,63.40
2023-05-30T10:49:56.309Z,63.40
2023-05-30T10:52:32.425Z,63.60
2023-05-30T10:55:01.561Z,63.40
2023-05-30T10:57:32.874Z,63.80
2023-05-30T11:00:07.221Z,63.90
2023-05-30T11:02:39.524Z,64.00
2023-05-30T11:05:08.394Z,63.90
2023-05-30T11:07:39.061Z,64.20
2023-05-30T11:10:09.744Z,64.10
2023-05-30T11:12:42.286Z,64.20
2023-05-30T11:15:10.805Z,64.10
2023-05-30T11:17:40.028Z,64.50
2023-05-30T11:20:09.107Z,64.40
2023-05-30T11:22:38.612Z,64.40
2023-05-30T11:25:19.395Z,64.40
2023-05-30T11:28:02.876Z,64.30
2023-05-30T11:30:30.708Z,64.80
2023-05-30T11:33:00.499Z,64.70
2023-05-30T11:35:28.930Z,64.60
2023-05-30T11:37:57.474Z,64.60
2023-05-30T11:40:25.380Z,64.40
2023-05-30T11:42:53.738Z,64.30
2023-05-30T11:45:24.706Z,64.20
2023-05-30T11:47:52.544Z,64.20
2023-05-30T11:50:22.099Z,64.10
2023-05-30T11:52:49.859Z,63.90
2023-05-30T11:55:18.477Z,63.80
2023-05-30T11:57:46.200Z,63.90
2023-05-30T12:00:14.693Z,63.80
2023-05-30T12:02:43.152Z,63.50
2023-05-30T12:05:11.477Z,63.60
2023-05-30T12:07:40.660Z,63.80
2023-05-30T12:10:09.408Z,63.60
2023-05-30T12:12:37.184Z,63.70
2023-05-30T12:15:05.585Z,63.40
2023-05-30T12:17:33.544Z,63.40
2023-05-30T12:20:07.712Z,63.20
2023-05-30T12:22:35.902Z,63.10
2023-05-30T12:25:10.179Z,63.10
2023-05-30T12:27:42.638Z,62.90
2023-05-30T12:30:14.148Z,63.00
2023-05-30T12:32:42.038Z,63.00
2023-05-30T12:35:10.530Z,63.40
2023-05-30T12:37:38.519Z,63.30
2023-05-30T12:40:08.887Z,63.10
2023-05-30T12:42:38.157Z,63.20
2023-05-30T12:45:07.948Z,63.30
2023-05-30T12:47:36.218Z,63.50
2023-05-30T12:50:04.069Z,63.60
2023-05-30T12:52:31.841Z,63.50
2023-05-30T12:54:59.594Z,63.60
2023-05-30T12:57:28.621Z,63.80
2023-05-30T12:59:56.656Z,63.70
2023-05-30T13:02:26.402Z,63.60
2023-05-30T13:04:54.408Z,63.80
2023-05-30T13:07:22.250Z,63.80
2023-05-30T13:09:50.239Z,63.80
2023-05-30T13:12:18.147Z,63.70
2023-05-30T13:14:47.996Z,63.80
2023-05-30T13:17:15.815Z,63.60
2023-05-30T13:19:43.581Z,63.50
2023-05-30T13:22:13.284Z,63.60
2023-05-30T13:24:41.143Z,63.40
2023-05-30T13:27:09.177Z,63.30
2023-05-30T13:29:36.979Z,63.30
2023-05-30T13:32:06.957Z,63.40
2023-05-30T13:34:37.287Z,63.10
2023-05-30T13:37:07.324Z,63.10
2023-05-30T13:39:35.174Z,63.00
2023-05-30T13:42:03.028Z,63.30
2023-05-30T13:44:30.747Z,63.30
2023-05-30T13:46:58.571Z,63.00
2023-05-30T13:49:33.404Z,62.90
2023-05-30T13:52:03.846Z,62.90
2023-05-30T13:54:31.627Z,63.10
2023-05-30T13:56:59.825Z,63.00
2023-05-30T13:59:28.133Z,63.00
2023-05-30T14:01:56.292Z,63.00
2023-05-30T14:04:24.125Z,63.00
2023-05-30T14:06:53.157Z,63.10
2023-05-30T14:09:21.386Z,63.00
2023-05-30T14:11:49.272Z,63.00
2023-05-30T14:14:17.834Z,62.80
2023-05-30T14:16:45.777Z,63.70
2023-05-30T14:19:14.057Z,62.70
2023-05-30T14:21:41.993Z,62.70
2023-05-30T14:24:11.646Z,62.70
2023-05-30T14:26:39.453Z,62.60
2023-05-30T14:29:07.205Z,62.60
2023-05-30T14:31:34.932Z,62.60
2023-05-30T14:34:02.660Z,62.60
2023-05-30T14:36:30.942Z,62.70
2023-05-30T14:38:58.745Z,62.60
2023-05-30T14:41:28.029Z,62.60
2023-05-30T14:43:56.357Z,62.20
2023-05-30T14:46:24.164Z,63.20
2023-05-30T14:48:52.030Z,63.60
2023-05-30T14:51:19.733Z,64.50
2023-05-30T14:53:47.659Z,65.40
2023-05-30T14:56:15.512Z,65.70
2023-05-30T14:58:44.579Z,66.20
2023-05-30T15:03:47.199Z,66.50
2023-05-30T15:06:14.912Z,67.90
2023-05-30T15:08:42.945Z,67.80
2023-05-30T15:11:10.704Z,66.20
2023-05-30T15:13:38.538Z,65.90
2023-05-30T15:16:07.781Z,65.80
2023-05-30T15:18:35.559Z,65.30
2023-05-30T15:21:03.424Z,65.50
2023-05-30T15:23:31.305Z,65.50
2023-05-30T15:25:59.065Z,65.30
2023-05-30T15:28:26.785Z,65.30
2023-05-30T15:30:54.555Z,65.20
2023-05-30T15:33:23.602Z,65.10
2023-05-30T15:35:51.285Z,65.00
2023-05-30T15:38:19.103Z,64.90
2023-05-30T15:40:47.024Z,65.10
2023-05-30T15:43:14.783Z,64.80
2023-05-30T15:45:42.587Z,64.60
2023-05-30T15:48:10.360Z,64.80
2023-05-30T15:50:39.439Z,65.60
2023-05-30T15:53:07.137Z,64.70
2023-05-30T15:55:34.841Z,64.60
2023-05-30T15:58:03.792Z,64.60
2023-05-30T16:00:32.747Z,64.40
2023-05-30T16:03:00.884Z,64.50
2023-05-30T16:05:28.688Z,64.40
2023-05-30T16:07:58.458Z,64.40
2023-05-30T16:10:26.206Z,64.30
2023-05-30T16:12:53.977Z,64.40
2023-05-30T16:15:22.459Z,64.40
2023-05-30T16:17:50.183Z,64.30
2023-05-30T16:20:18.179Z,64.20
2023-05-30T16:22:45.954Z,64.30
2023-05-30T16:25:14.980Z,64.40
2023-05-30T16:27:43.179Z,64.20
2023-05-30T16:30:11.467Z,64.10
2023-05-30T16:32:39.311Z,64.00
2023-05-30T16:35:07.705Z,64.00
2023-05-30T16:37:35.501Z,64.00
2023-05-30T16:40:03.921Z,63.90
2023-05-30T16:42:33.693Z,63.90
2023-05-30T16:45:01.442Z,63.90
2023-05-30T16:47:30.527Z,64.00
2023-05-30T16:49:58.326Z,63.80
2023-05-30T16:52:26.073Z,63.90
2023-05-30T16:54:54.560Z,63.80
2023-05-30T16:57:22.398Z,63.80
2023-05-30T16:59:51.454Z,63.90
2023-05-30T17:02:19.216Z,63.90
2023-05-30T17:04:46.957Z,63.90
2023-05-30T17:07:14.910Z,63.90
2023-05-30T17:09:42.664Z,64.00
2023-05-30T17:12:10.889Z,63.90
2023-05-30T17:14:38.678Z,64.00
2023-05-30T17:17:08.385Z,63.80
2023-05-30T17:19:36.305Z,63.80
2023-05-30T17:22:04.068Z,63.70
2023-05-30T17:24:31.808Z,63.80
2023-05-30T17:26:59.714Z,63.90
2023-05-30T17:29:27.465Z,63.70
2023-05-30T17:31:55.559Z,63.70
2023-05-30T17:34:26.511Z,63.80
2023-05-30T17:36:54.231Z,63.90
2023-05-30T17:39:21.959Z,63.90
2023-05-30T17:41:49.698Z,63.80
2023-05-30T17:44:17.431Z,63.90
2023-05-30T17:46:45.270Z,63.90
2023-05-30T17:49:13.028Z,64.00
2023-05-30T17:51:42.304Z,64.20
2023-05-30T17:54:10.218Z,64.30
2023-05-30T17:56:39.296Z,64.50
2023-05-30T17:59:08.350Z,64.40
2023-05-30T18:01:36.190Z,64.30
2023-05-30T18:04:04.004Z,64.20
2023-05-30T18:06:33.492Z,64.00
2023-05-30T18:09:02.791Z,64.10
2023-05-30T18:11:30.546Z,64.20
2023-05-30T18:13:58.262Z,64.30
2023-05-30T18:16:26.061Z,64.50
2023-05-30T18:18:53.875Z,64.40
2023-05-30T18:21:21.587Z,64.40
2023-05-30T18:23:49.341Z,64.30
2023-05-30T18:26:18.471Z,64.50
2023-05-30T18:28:46.433Z,64.40
2023-05-30T18:31:14.418Z,64.60
2023-05-30T18:33:42.125Z,64.50
2023-05-30T18:36:13.753Z,64.60
2023-05-30T18:38:42.263Z,64.50
2023-05-30T18:41:13.723Z,64.60
2023-05-30T18:43:42.871Z,64.60
2023-05-30T18:46:10.620Z,64.40
2023-05-30T18:48:45.218Z,64.60
2023-05-30T18:51:14.659Z,64.70
2023-05-30T18:53:42.959Z,64.60
2023-05-30T18:56:11.376Z,64.60
2023-05-30T18:58:39.219Z,64.70
2023-05-30T19:01:08.391Z,64.80
2023-05-30T19:03:36.755Z,64.80
2023-05-30T19:06:04.891Z,64.90
2023-05-30T19:08:32.603Z,64.80
2023-05-30T19:11:00.380Z,64.80
2023-05-30T19:13:28.179Z,64.90
2023-05-30T19:15:55.956Z,64.90
2023-05-30T19:18:25.836Z,64.80
2023-05-30T19:20:55.449Z,64.70
2023-05-30T19:23:23.361Z,64.80
2023-05-30T19:25:51.090Z,64.80
2023-05-30T19:28:18.799Z,64.90
2023-05-30T19:30:46.550Z,65.00
2023-05-30T19:33:14.288Z,64.90
2023-05-30T19:35:43.516Z,65.00
2023-05-30T19:38:11.438Z,65.00
2023-05-30T19:40:39.234Z,65.00
2023-05-30T19:43:06.922Z,65.20
2023-05-30T19:45:34.636Z,65.20
2023-05-30T19:48:02.792Z,65.30
2023-05-30T19:50:30.574Z,65.40
2023-05-30T19:52:59.941Z,65.50
2023-05-30T19:55:28.710Z,65.60
2023-05-30T19:57:56.480Z,65.70
2023-05-30T20:00:25.422Z,65.80
2023-05-30T20:02:53.218Z,65.80
2023-05-30T20:05:21.001Z,65.80
2023-05-30T20:07:48.771Z,66.00
2023-05-30T20:10:17.851Z,66.10
2023-05-30T20:12:45.785Z,66.00
2023-05-30T20:15:13.516Z,66.00
2023-05-30T20:17:41.358Z,65.90
2023-05-30T20:20:09.980Z,65.70
2023-05-30T20:22:37.777Z,65.50
2023-05-30T20:25:06.175Z,65.30
2023-05-30T20:27:38.378Z,65.20
2023-05-30T20:30:07.357Z,65.00
2023-05-30T20:32:35.090Z,65.00
2023-05-30T20:35:02.998Z,65.00
2023-05-30T20:37:31.000Z,65.00
2023-05-30T20:39:58.715Z,64.90
2023-05-30T20:42:26.419Z,64.70
2023-05-30T20:44:55.453Z,64.80
2023-05-30T20:47:23.256Z,64.60
2023-05-30T20:49:50.984Z,64.70
2023-05-30T20:52:18.810Z,64.60
2023-05-30T20:54:46.500Z,64.60
2023-05-30T20:57:17.720Z,64.60
2023-05-30T20:59:45.750Z,64.50
2023-05-30T21:02:14.926Z,64.60
2023-05-30T21:04:42.905Z,64.40
2023-05-30T21:07:10.776Z,64.30
2023-05-30T21:09:38.484Z,64.30
2023-05-30T21:12:07.613Z,64.30
2023-05-30T21:14:35.339Z,64.20
2023-05-30T21:17:03.951Z,64.20
2023-05-30T21:19:33.051Z,64.10
2023-05-30T21:22:00.842Z,64.00
2023-05-30T21:24:28.533Z,64.10
2023-05-30T21:26:56.268Z,64.10
2023-05-30T21:29:23.970Z,64.00
2023-05-30T21:31:51.800Z,63.80
2023-05-30T21:34:19.536Z,63.80
2023-05-30T21:36:48.604Z,63.60
2023-05-30T21:39:16.348Z,63.60
2023-05-30T21:41:44.184Z,63.60
2023-05-30T21:44:11.889Z,63.40
2023-05-30T21:46:39.582Z,63.30
2023-05-30T21:49:07.605Z,63.30
2023-05-30T21:51:36.116Z,63.20
2023-05-30T21:54:06.846Z,63.10
2023-05-30T21:56:34.778Z,62.90
2023-05-30T21:59:02.539Z,62.90
2023-05-30T22:01:30.324Z,62.90
2023-05-30T22:03:58.280Z,62.80
2023-05-30T22:06:26.149Z,62.70
2023-05-30T22:08:53.844Z,62.70
2023-05-30T22:11:23.624Z,62.60
2023-05-30T22:13:51.368Z,62.50
2023-05-30T22:16:20.407Z,62.50
2023-05-30T22:18:48.214Z,62.20
2023-05-30T22:21:15.935Z,62.10
2023-05-30T22:23:43.646Z,62.10
2023-05-30T22:26:11.431Z,62.00
2023-05-30T22:28:40.561Z,61.80
2023-05-30T22:31:08.281Z,61.70
2023-05-30T22:33:36.103Z,61.70
2023-05-30T22:36:03.914Z,61.70
2023-05-30T22:38:31.650Z,61.50
2023-05-30T22:40:59.519Z,61.40
2023-05-30T22:43:27.449Z,61.30
2023-05-30T22:45:56.505Z,61.20
2023-05-30T22:48:24.208Z,61.10
2023-05-30T22:50:52.326Z,61.00
2023-05-30T22:53:20.028Z,60.90
2023-05-30T22:55:47.771Z,60.80
2023-05-30T22:58:15.517Z,60.70
2023-05-30T23:00:43.224Z,60.60
2023-05-30T23:03:12.861Z,60.50
2023-05-30T23:05:41.026Z,60.30
2023-05-30T23:08:08.758Z,60.30
2023-05-30T23:10:36.480Z,60.10
2023-05-30T23:13:04.254Z,60.00
2023-05-30T23:15:32.015Z,60.00
2023-05-30T23:18:00.159Z,59.90
2023-05-30T23:20:29.342Z,59.80
2023-05-30T23:22:57.132Z,59.70
2023-05-30T23:25:25.045Z,59.60
2023-05-30T23:27:52.741Z,59.50
2023-05-30T23:30:20.569Z,59.40
2023-05-30T23:32:48.332Z,60.00
2023-05-30T23:35:16.568Z,59.20
2023-05-30T23:37:45.962Z,59.20
2023-05-30T23:40:13.659Z,59.00
2023-05-30T23:42:41.364Z,59.00
2023-05-30T23:45:09.607Z,58.90
2023-05-30T23:47:37.454Z,58.80
2023-05-30T23:50:05.805Z,58.80
2023-05-30T23:52:33.517Z,58.60
2023-05-30T23:55:02.552Z,58.50
2023-05-30T23:57:30.342Z,58.40
2023-05-30T23:59:58.050Z,58.30
